createdAt,value
2016-10-10T00:00:13.521Z,99.99
2016-10-10T00:01:13.508Z,99.99
2016-10-10T00:02:13.491Z,99.99
2016-10-10T00:03:13.479Z,99.99
2016-10-10T00:04:13.464Z,99.99
2016-10-10T00:05:13.449Z,99.99
2016-10-10T00:06:13.436Z,99.99
2016-10-10T00:07:13.419Z,99.99
2016-10-10T00:08:13.409Z,99.99
2016-10-10T00:09:13.395Z,99.99
2016-10-10T00:10:13.378Z,99.99
2016-10-10T00:11:13.674Z,99.99
2016-10-10T00:12:13.350Z,99.99
2016-10-10T00:13:13.336Z,99.99
2016-10-10T00:14:13.323Z,99.99
2016-10-10T00:15:13.315Z,99.99
2016-10-10T00:16:13.296Z,99.99
2016-10-10T00:17:13.590Z,99.99
2016-10-10T00:18:13.272Z,99.99
2016-10-10T00:19:13.256Z,99.99
2016-10-10T00:20:13.242Z,99.99
2016-10-10T00:21:13.223Z,99.99
2016-10-10T00:22:13.211Z,99.99
2016-10-10T00:23:13.514Z,99.99
2016-10-10T00:24:13.183Z,99.99
2016-10-10T00:25:13.170Z,99.99
2016-10-10T00:26:13.157Z,99.99
2016-10-10T00:27:13.142Z,99.99
2016-10-10T00:28:13.126Z,99.99
2016-10-10T00:29:13.120Z,99.99
2016-10-10T00:30:13.099Z,99.99
2016-10-10T00:31:13.468Z,99.99
2016-10-10T00:32:13.070Z,99.99
2016-10-10T00:33:13.057Z,99.99
2016-10-10T00:34:13.043Z,99.99
2016-10-10T00:35:13.029Z,99.99
2016-10-10T00:36:13.014Z,99.99
2016-10-10T00:37:13.326Z,99.99
2016-10-10T00:38:13.305Z,99.99
2016-10-10T00:39:12.971Z,99.99
2016-10-10T00:40:12.990Z,99.99
2016-10-10T00:41:13.259Z,99.99
2016-10-10T00:42:12.931Z,99.99
2016-10-10T00:43:12.918Z,99.99
2016-10-10T00:44:12.904Z,99.99
2016-10-10T00:45:12.887Z,99.99
2016-10-10T00:46:13.186Z,99.99
2016-10-10T00:47:12.861Z,99.99
2016-10-10T00:48:12.850Z,99.99
2016-10-10T00:49:12.828Z,99.99
2016-10-10T00:50:13.132Z,99.99
2016-10-10T00:51:12.806Z,99.99
2016-10-10T00:52:12.791Z,99.99
2016-10-10T00:53:12.773Z,99.99
2016-10-10T00:54:12.763Z,99.99
2016-10-10T00:55:12.746Z,99.99
2016-10-10T00:56:12.732Z,99.99
2016-10-10T00:57:12.718Z,99.99
2016-10-10T00:58:12.702Z,99.99
2016-10-10T00:59:12.692Z,99.99
2016-10-10T01:00:12.675Z,99.99
2016-10-10T01:01:12.663Z,99.99
2016-10-10T01:02:12.648Z,99.99
2016-10-10T01:03:12.635Z,99.99
2016-10-10T01:04:12.622Z,99.99
2016-10-10T01:05:12.922Z,99.99
2016-10-10T01:06:12.793Z,99.99
2016-10-10T01:07:12.578Z,99.99
2016-10-10T01:08:12.564Z,99.99
2016-10-10T01:09:12.550Z,99.99
2016-10-10T01:10:12.539Z,99.99
2016-10-10T01:11:12.524Z,99.99
2016-10-10T01:12:12.509Z,99.99
2016-10-10T01:13:12.810Z,99.99
2016-10-10T01:14:12.479Z,99.99
2016-10-10T01:15:12.468Z,99.99
2016-10-10T01:16:12.456Z,99.99
2016-10-10T01:17:12.434Z,99.99
2016-10-10T01:18:12.742Z,99.99
2016-10-10T01:19:12.723Z,99.99
2016-10-10T01:20:12.396Z,99.99
2016-10-10T01:21:12.382Z,99.99
2016-10-10T01:22:12.368Z,99.99
2016-10-10T01:23:12.353Z,99.99
2016-10-10T01:24:12.344Z,99.99
2016-10-10T01:25:12.328Z,99.99
2016-10-10T01:26:12.309Z,99.99
2016-10-10T01:27:12.608Z,99.99
2016-10-10T01:28:12.284Z,99.99
2016-10-10T01:29:12.270Z,99.99
2016-10-10T01:30:12.256Z,99.99
2016-10-10T01:31:12.240Z,99.99
2016-10-10T01:32:12.224Z,99.99
2016-10-10T01:33:12.210Z,99.99
2016-10-10T01:34:12.199Z,99.99
2016-10-10T01:35:12.182Z,99.99
2016-10-10T01:36:12.169Z,99.99
2016-10-10T01:37:12.465Z,99.99
2016-10-10T01:38:12.139Z,99.99
2016-10-10T01:39:12.124Z,99.99
2016-10-10T01:40:12.111Z,99.99
2016-10-10T01:41:12.102Z,99.99
2016-10-10T01:42:12.395Z,99.99
2016-10-10T01:43:12.067Z,99.99
2016-10-10T01:44:12.054Z,99.99
2016-10-10T01:45:12.348Z,99.99
2016-10-10T01:46:12.339Z,99.99
2016-10-10T01:47:12.014Z,99.99
2016-10-10T01:48:11.998Z,99.99
2016-10-10T01:49:11.980Z,99.99
2016-10-10T01:50:11.967Z,99.99
2016-10-10T01:51:11.951Z,99.99
2016-10-10T01:52:11.938Z,99.99
2016-10-10T01:53:11.923Z,99.99
2016-10-10T01:54:11.910Z,99.99
2016-10-10T01:55:11.891Z,99.99
2016-10-10T01:56:11.880Z,99.99
2016-10-10T01:57:11.862Z,99.99
2016-10-10T01:58:11.850Z,99.99
2016-10-10T01:59:11.831Z,99.99
2016-10-10T02:00:11.818Z,99.99
2016-10-10T02:01:11.803Z,99.99
2016-10-10T02:02:11.789Z,99.99
2016-10-10T02:03:11.773Z,99.99
2016-10-10T02:04:11.759Z,99.99
2016-10-10T02:05:11.743Z,99.99
2016-10-10T02:06:11.728Z,99.99
2016-10-10T02:07:11.710Z,99.99
2016-10-10T02:08:11.697Z,99.99
2016-10-10T02:09:11.692Z,99.99
2016-10-10T02:10:11.678Z,99.99
2016-10-10T02:11:11.655Z,99.99
2016-10-10T02:12:11.641Z,99.99
2016-10-10T02:13:11.622Z,99.99
2016-10-10T02:14:11.609Z,99.99
2016-10-10T02:15:11.587Z,99.99
2016-10-10T02:16:11.575Z,99.99
2016-10-10T02:17:11.556Z,99.99
2016-10-10T02:18:11.543Z,99.99
2016-10-10T02:19:11.526Z,99.99
2016-10-10T02:20:11.516Z,99.99
2016-10-10T02:21:11.496Z,99.99
2016-10-10T02:22:11.482Z,99.99
2016-10-10T02:23:11.465Z,99.99
2016-10-10T02:24:11.450Z,99.99
2016-10-10T02:25:11.435Z,99.99
2016-10-10T02:26:11.419Z,99.99
2016-10-10T02:27:11.406Z,99.99
2016-10-10T02:28:11.390Z,99.99
2016-10-10T02:29:11.371Z,99.99
2016-10-10T02:30:11.357Z,99.99
2016-10-10T02:31:11.340Z,99.99
2016-10-10T02:32:11.330Z,99.99
2016-10-10T02:33:11.311Z,99.99
2016-10-10T02:34:11.297Z,99.99
2016-10-10T02:35:11.279Z,99.99
2016-10-10T02:36:11.263Z,99.99
2016-10-10T02:37:11.249Z,99.99
2016-10-10T02:38:11.233Z,99.99
2016-10-10T02:39:11.529Z,99.99
2016-10-10T02:40:11.203Z,99.99
2016-10-10T02:41:11.186Z,99.99
2016-10-10T02:42:11.171Z,99.99
2016-10-10T02:43:11.156Z,99.99
2016-10-10T02:44:11.140Z,99.99
2016-10-10T02:45:11.123Z,99.99
2016-10-10T02:46:11.110Z,99.99
2016-10-10T02:47:11.094Z,99.99
2016-10-10T02:48:11.390Z,99.99
2016-10-10T02:49:11.377Z,99.99
2016-10-10T02:50:11.045Z,99.99
2016-10-10T02:51:11.029Z,99.99
2016-10-10T02:52:11.015Z,99.99
2016-10-10T02:53:11.000Z,99.99
2016-10-10T02:54:10.982Z,99.99
2016-10-10T02:55:10.971Z,99.99
2016-10-10T02:56:10.953Z,99.99
2016-10-10T02:57:10.936Z,99.99
2016-10-10T02:58:10.921Z,99.99
2016-10-10T02:59:10.907Z,99.99
2016-10-10T03:00:10.889Z,99.99
2016-10-10T03:01:10.873Z,99.99
2016-10-10T03:02:10.858Z,99.99
2016-10-10T03:03:10.843Z,99.99
2016-10-10T03:04:10.825Z,99.99
2016-10-10T03:05:10.810Z,99.99
2016-10-10T03:06:10.996Z,99.99
2016-10-10T03:07:10.779Z,99.99
2016-10-10T03:08:10.761Z,99.99
2016-10-10T03:09:10.748Z,99.99
2016-10-10T03:10:10.734Z,99.99
2016-10-10T03:11:10.756Z,99.99
2016-10-10T03:12:10.700Z,99.99
2016-10-10T03:13:11.000Z,99.99
2016-10-10T03:14:10.669Z,99.99
2016-10-10T03:15:10.651Z,99.99
2016-10-10T03:16:10.636Z,99.99
2016-10-10T03:17:10.629Z,99.99
2016-10-10T03:18:10.604Z,99.99
2016-10-10T03:19:10.596Z,99.99
2016-10-10T03:20:10.576Z,99.99
2016-10-10T03:21:10.562Z,99.99
2016-10-10T03:22:10.541Z,99.99
2016-10-10T03:23:10.528Z,99.99
2016-10-10T03:24:10.507Z,99.99
2016-10-10T03:25:10.491Z,99.99
2016-10-10T03:26:10.789Z,99.99
2016-10-10T03:27:10.459Z,99.99
2016-10-10T03:28:10.444Z,99.99
2016-10-10T03:29:10.427Z,99.99
2016-10-10T03:30:10.412Z,99.99
2016-10-10T03:31:10.394Z,99.99
2016-10-10T03:32:10.383Z,99.99
2016-10-10T03:33:10.360Z,99.99
2016-10-10T03:34:10.347Z,99.99
2016-10-10T03:35:10.329Z,99.99
2016-10-10T03:36:10.317Z,99.99
2016-10-10T03:37:10.611Z,99.99
2016-10-10T03:38:10.280Z,99.99
2016-10-10T03:39:10.265Z,99.99
2016-10-10T03:40:10.247Z,99.99
2016-10-10T03:41:10.548Z,99.99
2016-10-10T03:42:10.216Z,99.99
2016-10-10T03:43:10.199Z,99.99
2016-10-10T03:44:10.185Z,99.99
2016-10-10T03:45:10.184Z,99.99
2016-10-10T03:46:10.463Z,99.99
2016-10-10T03:47:10.132Z,99.99
2016-10-10T03:48:10.116Z,99.99
2016-10-10T03:49:10.100Z,99.99
2016-10-10T03:50:10.400Z,99.99
2016-10-10T03:51:10.076Z,99.99
2016-10-10T03:52:10.055Z,99.99
2016-10-10T03:53:10.043Z,99.99
2016-10-10T03:54:10.021Z,99.99
2016-10-10T03:55:10.003Z,99.99
2016-10-10T03:56:09.987Z,99.99
2016-10-10T03:57:09.969Z,99.99
2016-10-10T03:58:09.953Z,99.99
2016-10-10T03:59:09.935Z,99.99
2016-10-10T04:00:09.919Z,99.99
2016-10-10T04:01:09.909Z,99.99
2016-10-10T04:02:09.894Z,99.99
2016-10-10T04:03:10.205Z,99.99
2016-10-10T04:04:09.871Z,99.99
2016-10-10T04:05:10.160Z,99.99
2016-10-10T04:06:09.836Z,99.99
2016-10-10T04:07:09.808Z,99.99
2016-10-10T04:08:10.105Z,99.99
2016-10-10T04:09:09.783Z,99.99
2016-10-10T04:10:09.754Z,99.99
2016-10-10T04:11:10.050Z,99.99
2016-10-10T04:12:09.721Z,99.99
2016-10-10T04:13:09.702Z,99.99
2016-10-10T04:14:10.003Z,99.99
2016-10-10T04:15:09.670Z,99.99
2016-10-10T04:16:09.662Z,99.99
2016-10-10T04:17:09.641Z,99.99
2016-10-10T04:18:09.626Z,99.99
2016-10-10T04:19:09.604Z,99.99
2016-10-10T04:20:09.587Z,99.99
2016-10-10T04:21:09.571Z,99.99
2016-10-10T04:22:09.871Z,99.99
2016-10-10T04:23:09.536Z,99.99
2016-10-10T04:24:09.518Z,99.99
2016-10-10T04:25:09.509Z,99.99
2016-10-10T04:26:09.485Z,99.99
2016-10-10T04:27:09.471Z,99.99
2016-10-10T04:28:09.453Z,99.99
2016-10-10T04:29:09.444Z,99.99
2016-10-10T04:30:09.419Z,99.99
2016-10-10T04:31:09.409Z,99.99
2016-10-10T04:32:09.388Z,99.99
2016-10-10T04:33:09.370Z,99.99
2016-10-10T04:34:09.349Z,99.99
2016-10-10T04:35:09.337Z,99.99
2016-10-10T04:36:09.317Z,99.99
2016-10-10T04:37:09.306Z,99.99
2016-10-10T04:38:09.285Z,99.99
2016-10-10T04:39:09.269Z,99.99
2016-10-10T04:40:09.252Z,99.99
2016-10-10T04:41:09.236Z,99.99
2016-10-10T04:42:09.227Z,99.99
2016-10-10T04:43:09.230Z,99.99
2016-10-10T04:44:09.512Z,99.99
2016-10-10T04:45:09.173Z,99.99
2016-10-10T04:46:09.158Z,99.99
2016-10-10T04:47:09.139Z,99.99
2016-10-10T04:48:09.120Z,99.99
2016-10-10T04:49:09.103Z,99.99
2016-10-10T04:50:09.086Z,99.99
2016-10-10T04:51:09.075Z,99.99
2016-10-10T04:52:09.053Z,99.99
2016-10-10T04:53:09.037Z,99.99
2016-10-10T04:54:09.020Z,99.99
2016-10-10T04:55:09.006Z,99.99
2016-10-10T04:56:09.303Z,99.99
2016-10-10T04:57:08.969Z,99.99
2016-10-10T04:58:08.958Z,99.99
2016-10-10T04:59:08.940Z,99.99
2016-10-10T05:00:09.247Z,99.99
2016-10-10T05:01:08.901Z,99.99
2016-10-10T05:02:08.903Z,99.99
2016-10-10T05:03:08.869Z,99.99
2016-10-10T05:04:08.851Z,99.99
2016-10-10T05:05:08.836Z,99.99
2016-10-10T05:06:09.025Z,99.99
2016-10-10T05:07:08.808Z,99.99
2016-10-10T05:08:08.790Z,99.99
2016-10-10T05:09:08.773Z,99.99
2016-10-10T05:10:09.071Z,99.99
2016-10-10T05:11:08.737Z,99.99
2016-10-10T05:12:08.720Z,99.99
2016-10-10T05:13:08.708Z,99.99
2016-10-10T05:14:08.690Z,99.99
2016-10-10T05:15:08.680Z,99.99
2016-10-10T05:16:08.655Z,99.99
2016-10-10T05:17:08.637Z,99.99
2016-10-10T05:18:08.625Z,99.99
2016-10-10T05:19:08.605Z,99.99
2016-10-10T05:20:08.591Z,99.99
2016-10-10T05:21:08.572Z,99.99
2016-10-10T05:22:08.554Z,99.99
2016-10-10T05:23:08.539Z,99.99
2016-10-10T05:24:08.521Z,99.99
2016-10-10T05:25:08.504Z,99.99
2016-10-10T05:26:08.487Z,99.99
2016-10-10T05:27:08.471Z,99.99
2016-10-10T05:28:08.765Z,99.99
2016-10-10T05:29:08.436Z,99.99
2016-10-10T05:30:08.423Z,99.99
2016-10-10T05:31:08.405Z,99.99
2016-10-10T05:32:08.386Z,99.99
2016-10-10T05:33:08.376Z,99.99
2016-10-10T05:34:08.669Z,99.99
2016-10-10T05:35:08.648Z,99.99
2016-10-10T05:36:08.322Z,99.99
2016-10-10T05:37:08.302Z,99.99
2016-10-10T05:38:08.289Z,99.99
2016-10-10T05:39:08.269Z,99.99
2016-10-10T05:40:08.258Z,99.99
2016-10-10T05:41:08.238Z,99.99
2016-10-10T05:42:08.229Z,99.99
2016-10-10T05:43:08.210Z,99.99
2016-10-10T05:44:08.187Z,99.99
2016-10-10T05:45:08.173Z,99.99
2016-10-10T05:46:08.478Z,99.99
2016-10-10T05:47:08.139Z,99.99
2016-10-10T05:48:08.122Z,99.99
2016-10-10T05:49:08.101Z,99.99
2016-10-10T05:50:08.089Z,99.99
2016-10-10T05:51:08.075Z,99.99
2016-10-10T05:52:08.053Z,99.99
2016-10-10T05:53:08.039Z,99.99
2016-10-10T05:54:08.021Z,99.99
2016-10-10T05:55:08.004Z,99.99
2016-10-10T05:56:08.306Z,99.99
2016-10-10T05:57:07.970Z,99.99
2016-10-10T05:58:07.957Z,99.99
2016-10-10T05:59:07.937Z,99.99
2016-10-10T06:00:07.921Z,99.99
2016-10-10T06:01:08.221Z,99.99
2016-10-10T06:02:07.887Z,99.99
2016-10-10T06:03:07.869Z,99.99
2016-10-10T06:04:07.856Z,99.99
2016-10-10T06:05:07.834Z,99.99
2016-10-10T06:06:07.823Z,99.99
2016-10-10T06:07:08.116Z,99.99
2016-10-10T06:08:07.783Z,99.99
2016-10-10T06:09:07.775Z,99.99
2016-10-10T06:10:08.072Z,99.99
2016-10-10T06:11:07.740Z,99.99
2016-10-10T06:12:08.034Z,99.99
2016-10-10T06:13:07.708Z,99.99
2016-10-10T06:14:07.686Z,99.99
2016-10-10T06:15:07.669Z,99.99
2016-10-10T06:16:07.660Z,99.99
2016-10-10T06:17:07.640Z,99.99
2016-10-10T06:18:07.618Z,99.99
2016-10-10T06:19:07.600Z,99.99
2016-10-10T06:20:07.585Z,99.99
2016-10-10T06:21:07.571Z,99.99
2016-10-10T06:22:07.559Z,99.99
2016-10-10T06:23:07.538Z,99.99
2016-10-10T06:24:07.537Z,99.99
2016-10-10T06:25:07.501Z,99.99
2016-10-10T06:26:07.485Z,99.99
2016-10-10T06:27:07.470Z,99.99
2016-10-10T06:28:07.454Z,99.99
2016-10-10T06:29:07.434Z,99.99
2016-10-10T06:30:07.432Z,99.99
2016-10-10T06:31:07.405Z,99.99
2016-10-10T06:32:07.393Z,99.99
2016-10-10T06:33:07.371Z,99.99
2016-10-10T06:34:07.672Z,99.99
2016-10-10T06:35:07.344Z,99.99
2016-10-10T06:36:07.331Z,99.99
2016-10-10T06:37:07.307Z,99.99
2016-10-10T06:38:07.292Z,99.99
2016-10-10T06:39:07.280Z,99.99
2016-10-10T06:40:07.274Z,99.99
2016-10-10T06:41:07.245Z,99.99
2016-10-10T06:42:07.225Z,99.99
2016-10-10T06:43:07.216Z,99.99
2016-10-10T06:44:07.200Z,99.99
2016-10-10T06:45:07.181Z,99.99
2016-10-10T06:46:07.164Z,99.99
2016-10-10T06:47:07.144Z,99.99
2016-10-10T06:48:07.126Z,99.99
2016-10-10T06:49:07.113Z,99.99
2016-10-10T06:50:07.418Z,99.99
2016-10-10T06:51:07.078Z,99.99
2016-10-10T06:52:07.062Z,99.99
2016-10-10T06:53:07.055Z,99.99
2016-10-10T06:54:07.040Z,99.99
2016-10-10T06:55:07.016Z,99.99
2016-10-10T06:56:06.997Z,99.99
2016-10-10T06:57:06.985Z,99.99
2016-10-10T06:58:07.582Z,99.99
2016-10-10T06:59:06.952Z,99.99
2016-10-10T07:00:06.940Z,99.99
2016-10-10T07:01:06.919Z,99.99
2016-10-10T07:02:06.901Z,99.99
2016-10-10T07:03:07.203Z,99.99
2016-10-10T07:04:06.872Z,99.99
2016-10-10T07:05:06.856Z,99.99
2016-10-10T07:06:07.045Z,99.99
2016-10-10T07:07:06.823Z,99.99
2016-10-10T07:08:06.815Z,99.99
2016-10-10T07:09:06.791Z,99.99
2016-10-10T07:10:07.086Z,99.99
2016-10-10T07:11:06.758Z,99.99
2016-10-10T07:12:06.745Z,99.99
2016-10-10T07:13:06.741Z,99.99
2016-10-10T07:14:07.023Z,99.99
2016-10-10T07:15:06.696Z,99.99
2016-10-10T07:16:06.676Z,99.99
2016-10-10T07:17:06.667Z,99.99
2016-10-10T07:18:06.648Z,99.99
2016-10-10T07:19:06.636Z,99.99
2016-10-10T07:20:06.929Z,99.99
2016-10-10T07:21:06.601Z,99.99
2016-10-10T07:22:06.585Z,99.99
2016-10-10T07:23:06.573Z,99.99
2016-10-10T07:24:06.553Z,99.99
2016-10-10T07:25:06.534Z,99.99
2016-10-10T07:26:06.523Z,99.99
2016-10-10T07:27:06.505Z,99.99
2016-10-10T07:28:06.492Z,99.99
2016-10-10T07:29:06.796Z,99.99
2016-10-10T07:30:06.459Z,99.99
2016-10-10T07:31:06.444Z,99.99
2016-10-10T07:32:06.424Z,99.99
2016-10-10T07:33:06.409Z,99.99
2016-10-10T07:34:06.393Z,99.99
2016-10-10T07:35:06.384Z,99.99
2016-10-10T07:36:06.679Z,99.99
2016-10-10T07:37:06.353Z,99.99
2016-10-10T07:38:06.333Z,99.99
2016-10-10T07:39:06.356Z,99.99
2016-10-10T07:40:06.327Z,99.99
2016-10-10T07:41:06.293Z,99.99
2016-10-10T07:42:06.593Z,99.99
2016-10-10T07:43:06.258Z,99.99
2016-10-10T07:44:06.244Z,99.99
2016-10-10T07:45:06.229Z,99.99
2016-10-10T07:46:06.524Z,99.99
2016-10-10T07:47:06.195Z,99.99
2016-10-10T07:48:06.496Z,99.99
2016-10-10T07:49:06.477Z,99.99
2016-10-10T07:50:06.149Z,99.99
2016-10-10T07:51:06.131Z,99.99
2016-10-10T07:52:06.126Z,99.99
2016-10-10T07:53:06.106Z,99.99
2016-10-10T07:54:06.091Z,99.99
2016-10-10T07:55:06.072Z,99.99
2016-10-10T07:56:06.061Z,99.99
2016-10-10T07:57:06.353Z,99.99
2016-10-10T07:58:06.030Z,99.99
2016-10-10T07:59:06.010Z,99.99
2016-10-10T08:00:05.999Z,99.99
2016-10-10T08:01:05.986Z,99.99
2016-10-10T08:02:06.282Z,99.99
2016-10-10T08:03:05.954Z,99.99
2016-10-10T08:04:06.252Z,99.99
2016-10-10T08:05:05.926Z,99.99
2016-10-10T08:06:06.219Z,99.99
2016-10-10T08:07:05.893Z,99.99
2016-10-10T08:08:05.880Z,99.99
2016-10-10T08:09:05.864Z,99.99
2016-10-10T08:10:05.849Z,99.99
2016-10-10T08:11:05.835Z,99.99
2016-10-10T08:12:05.834Z,99.99
2016-10-10T08:13:05.805Z,99.99
2016-10-10T08:14:05.804Z,99.99
2016-10-10T08:15:05.779Z,99.99
2016-10-10T08:16:05.762Z,99.99
2016-10-10T08:17:05.747Z,99.99
2016-10-10T08:18:05.730Z,99.99
2016-10-10T08:19:05.717Z,99.99
2016-10-10T08:20:05.702Z,99.99
2016-10-10T08:21:05.691Z,99.99
2016-10-10T08:22:05.677Z,99.99
2016-10-10T08:23:05.666Z,99.99
2016-10-10T08:24:05.647Z,99.99
2016-10-10T08:25:05.639Z,99.99
2016-10-10T08:26:05.618Z,99.99
2016-10-10T08:27:05.607Z,99.99
2016-10-10T08:28:05.589Z,99.99
2016-10-10T08:29:05.890Z,99.99
2016-10-10T08:30:05.563Z,99.99
2016-10-10T08:31:05.547Z,99.99
2016-10-10T08:32:05.540Z,99.99
2016-10-10T08:33:05.835Z,99.99
2016-10-10T08:34:05.829Z,99.99
2016-10-10T08:35:05.494Z,99.99
2016-10-10T08:36:05.480Z,99.99
2016-10-10T08:37:05.469Z,99.99
2016-10-10T08:38:05.448Z,99.99
2016-10-10T08:39:05.438Z,99.99
2016-10-10T08:40:05.422Z,99.99
2016-10-10T08:41:05.413Z,99.99
2016-10-10T08:42:05.394Z,99.99
2016-10-10T08:43:05.691Z,99.99
2016-10-10T08:44:05.365Z,99.99
2016-10-10T08:45:05.365Z,99.99
2016-10-10T08:46:05.341Z,99.99
2016-10-10T08:47:05.320Z,99.99
2016-10-10T08:48:05.312Z,99.99
2016-10-10T08:49:05.294Z,99.99
2016-10-10T08:50:05.297Z,99.99
2016-10-10T08:51:05.284Z,99.99
2016-10-10T08:52:05.617Z,99.99
2016-10-10T08:53:05.275Z,99.99
2016-10-10T08:54:05.226Z,99.99
2016-10-10T08:55:05.212Z,99.99
2016-10-10T08:56:05.512Z,99.99
2016-10-10T08:57:05.187Z,99.99
2016-10-10T08:58:05.175Z,99.99
2016-10-10T08:59:05.476Z,99.99
2016-10-10T09:00:05.462Z,99.99
2016-10-10T09:01:05.133Z,99.99
2016-10-10T09:02:05.121Z,99.99
2016-10-10T09:03:05.107Z,99.99
2016-10-10T09:04:05.097Z,99.99
2016-10-10T09:05:05.079Z,99.99
2016-10-10T09:06:05.064Z,99.99
2016-10-10T09:07:05.051Z,99.99
2016-10-10T09:08:05.039Z,99.99
2016-10-10T09:09:05.024Z,99.99
2016-10-10T09:10:05.011Z,99.99
2016-10-10T09:11:05.326Z,99.99
2016-10-10T09:12:04.989Z,99.99
2016-10-10T09:13:05.291Z,99.99
2016-10-10T09:14:04.959Z,99.99
2016-10-10T09:15:04.944Z,99.99
2016-10-10T09:16:05.267Z,99.99
2016-10-10T09:17:04.920Z,99.99
2016-10-10T09:18:04.906Z,99.99
2016-10-10T09:19:05.204Z,99.99
2016-10-10T09:20:05.197Z,99.99
2016-10-10T09:21:04.871Z,99.99
2016-10-10T09:22:04.855Z,99.99
2016-10-10T09:23:04.844Z,99.99
2016-10-10T09:24:05.144Z,99.99
2016-10-10T09:25:04.818Z,99.99
2016-10-10T09:26:04.799Z,99.99
2016-10-10T09:27:04.793Z,99.99
2016-10-10T09:28:04.773Z,99.99
2016-10-10T09:29:05.081Z,99.99
2016-10-10T09:30:04.749Z,99.99
2016-10-10T09:31:05.048Z,99.99
2016-10-10T09:32:05.036Z,99.99
2016-10-10T09:33:04.713Z,99.99
2016-10-10T09:34:04.698Z,99.99
2016-10-10T09:35:04.707Z,99.99
2016-10-10T09:36:04.681Z,99.99
2016-10-10T09:37:04.980Z,99.99
2016-10-10T09:38:04.647Z,99.99
2016-10-10T09:39:04.634Z,99.99
2016-10-10T09:40:04.634Z,99.99
2016-10-10T09:41:04.612Z,99.99
2016-10-10T09:42:04.594Z,99.99
2016-10-10T09:43:04.597Z,99.99
2016-10-10T09:44:04.886Z,99.99
2016-10-10T09:45:04.559Z,99.99
2016-10-10T09:46:04.571Z,99.99
2016-10-10T09:47:04.845Z,99.99
2016-10-10T09:48:04.833Z,99.99
2016-10-10T09:49:04.506Z,99.99
2016-10-10T09:50:04.495Z,99.99
2016-10-10T09:51:04.481Z,99.99
2016-10-10T09:52:04.476Z,99.99
2016-10-10T09:53:04.452Z,99.99
2016-10-10T09:54:04.759Z,99.99
2016-10-10T09:55:04.438Z,99.99
2016-10-10T09:56:04.413Z,99.99
2016-10-10T09:57:04.402Z,99.99
2016-10-10T09:58:04.399Z,99.99
2016-10-10T09:59:04.689Z,99.99
2016-10-10T10:00:04.363Z,99.99
2016-10-10T10:01:04.411Z,99.99
2016-10-10T10:02:04.358Z,99.99
2016-10-10T10:03:04.330Z,99.99
2016-10-10T10:04:04.314Z,99.99
2016-10-10T10:05:04.611Z,99.99
2016-10-10T10:06:04.287Z,99.99
2016-10-10T10:07:04.272Z,99.99
2016-10-10T10:08:04.259Z,99.99
2016-10-10T10:09:04.247Z,99.99
2016-10-10T10:10:04.248Z,99.99
2016-10-10T10:11:04.220Z,99.99
2016-10-10T10:12:04.206Z,99.99
2016-10-10T10:13:04.197Z,99.99
2016-10-10T10:14:04.495Z,99.99
2016-10-10T10:15:04.173Z,99.99
2016-10-10T10:16:04.473Z,99.99
2016-10-10T10:17:04.149Z,99.99
2016-10-10T10:18:04.136Z,99.99
2016-10-10T10:19:04.125Z,99.99
2016-10-10T10:20:04.422Z,99.99
2016-10-10T10:21:04.100Z,99.99
2016-10-10T10:22:04.083Z,99.99
2016-10-10T10:23:04.075Z,99.99
2016-10-10T10:24:04.061Z,99.99
2016-10-10T10:25:04.366Z,99.99
2016-10-10T10:26:04.034Z,99.99
2016-10-10T10:27:04.025Z,99.99
2016-10-10T10:28:04.012Z,99.99
2016-10-10T10:29:04.321Z,99.99
2016-10-10T10:30:03.986Z,99.99
2016-10-10T10:31:03.977Z,99.99
2016-10-10T10:32:03.967Z,99.99
2016-10-10T10:33:03.957Z,99.99
2016-10-10T10:34:03.946Z,99.99
2016-10-10T10:35:03.932Z,99.99
2016-10-10T10:36:04.229Z,99.99
2016-10-10T10:37:03.905Z,99.99
2016-10-10T10:38:03.895Z,99.99
2016-10-10T10:39:03.884Z,99.99
2016-10-10T10:40:03.872Z,99.99
2016-10-10T10:41:03.859Z,99.66
2016-10-10T10:42:03.850Z,99.99
2016-10-10T10:43:03.835Z,99.99
2016-10-10T10:44:03.826Z,99.99
2016-10-10T10:45:04.129Z,99.99
2016-10-10T10:46:03.804Z,99.99
2016-10-10T10:47:04.110Z,99.99
2016-10-10T10:48:03.783Z,99.37
2016-10-10T10:49:03.772Z,98.94
2016-10-10T10:50:03.769Z,97.13
2016-10-10T10:51:03.757Z,96.46
2016-10-10T10:52:03.744Z,97.13
2016-10-10T10:53:03.730Z,98.08
2016-10-10T10:54:03.724Z,96.46
2016-10-10T10:55:03.713Z,97.22
2016-10-10T10:56:03.698Z,96.37
2016-10-10T10:57:03.691Z,96.46
2016-10-10T10:58:03.682Z,97.13
2016-10-10T10:59:03.668Z,96.37
2016-10-10T11:00:03.660Z,96.75
2016-10-10T11:01:03.651Z,94.84
2016-10-10T11:02:03.642Z,94.56
2016-10-10T11:03:03.632Z,94.84
2016-10-10T11:04:03.624Z,95.51
2016-10-10T11:05:03.609Z,94.84
2016-10-10T11:06:03.602Z,94.93
2016-10-10T11:07:03.792Z,96.08
2016-10-10T11:08:03.581Z,95.51
2016-10-10T11:09:03.575Z,95.32
2016-10-10T11:10:03.558Z,95.61
2016-10-10T11:11:03.551Z,96.37
2016-10-10T11:12:03.537Z,94.93
2016-10-10T11:13:03.531Z,94.27
2016-10-10T11:14:03.520Z,93.02
2016-10-10T11:15:03.508Z,93.79
2016-10-10T11:16:03.498Z,92.65
2016-10-10T11:17:03.488Z,92.55
2016-10-10T11:18:03.477Z,94.27
2016-10-10T11:19:03.468Z,94.17
2016-10-10T11:20:03.460Z,94.36
2016-10-10T11:21:03.461Z,93.88
2016-10-10T11:22:03.439Z,93.7
2016-10-10T11:23:03.427Z,93.22
2016-10-10T11:24:03.420Z,92.46
2016-10-10T11:25:03.408Z,91.31
2016-10-10T11:26:03.402Z,90.97
2016-10-10T11:27:03.393Z,90.78
2016-10-10T11:28:03.382Z,91.41
2016-10-10T11:29:03.371Z,92.31
2016-10-10T11:30:03.362Z,90.5
2016-10-10T11:31:03.352Z,90.59
2016-10-10T11:32:03.344Z,91.74
2016-10-10T11:33:03.330Z,90.97
2016-10-10T11:34:03.326Z,90.02
2016-10-10T11:35:03.311Z,90.5
2016-10-10T11:36:03.305Z,90.69
2016-10-10T11:37:03.297Z,91.93
2016-10-10T11:38:03.607Z,90.78
2016-10-10T11:39:03.276Z,91.45
2016-10-10T11:40:03.273Z,91.45
2016-10-10T11:41:03.258Z,91.16
2016-10-10T11:42:03.249Z,90.78
2016-10-10T11:43:03.239Z,89.73
2016-10-10T11:44:03.238Z,88.87
2016-10-10T11:45:03.221Z,88.73
2016-10-10T11:46:03.211Z,88.92
2016-10-10T11:47:03.203Z,88.73
2016-10-10T11:48:03.192Z,88.34
2016-10-10T11:49:03.184Z,87.29
2016-10-10T11:50:03.173Z,87.68
2016-10-10T11:51:03.175Z,87.87
2016-10-10T11:52:03.178Z,87.2
2016-10-10T11:53:03.464Z,86.29
2016-10-10T11:54:03.157Z,86
2016-10-10T11:55:03.129Z,84.56
2016-10-10T11:56:03.125Z,83.33
2016-10-10T11:57:03.112Z,81.13
2016-10-10T11:58:03.104Z,81.93
2016-10-10T11:59:03.100Z,81.26
2016-10-10T12:00:03.096Z,78.97
2016-10-10T12:01:03.087Z,79
2016-10-10T12:02:03.073Z,79.2
2016-10-10T12:03:03.065Z,75.41
2016-10-10T12:04:03.058Z,74.3
2016-10-10T12:05:03.363Z,74.15
2016-10-10T12:06:03.043Z,74.82
2016-10-10T12:07:03.038Z,72.64
2016-10-10T12:08:03.032Z,72.2
2016-10-10T12:09:03.027Z,71.82
2016-10-10T12:10:03.023Z,69.9
2016-10-10T12:11:03.031Z,71.02
2016-10-10T12:12:03.014Z,71.88
2016-10-10T12:13:03.009Z,72.23
2016-10-10T12:14:03.004Z,73.38
2016-10-10T12:15:02.998Z,73.72
2016-10-10T12:16:02.993Z,73.63
2016-10-10T12:17:02.986Z,73.97
2016-10-10T12:18:02.983Z,74.45
2016-10-10T12:19:02.977Z,75.56
2016-10-10T12:20:02.971Z,76.62
2016-10-10T12:21:02.968Z,77.44
2016-10-10T12:22:02.965Z,78.87
2016-10-10T12:23:02.952Z,79.25
2016-10-10T12:24:02.951Z,79.12
2016-10-10T12:25:02.953Z,76.48
2016-10-10T12:26:02.937Z,74.16
2016-10-10T12:27:03.013Z,73.63
2016-10-10T12:28:02.925Z,70.41
2016-10-10T12:29:02.918Z,69.64
2016-10-10T12:30:02.910Z,68.33
2016-10-10T12:31:02.904Z,67.99
2016-10-10T12:32:02.901Z,67.54
2016-10-10T12:33:02.919Z,66.13
2016-10-10T12:34:02.890Z,64.43
2016-10-10T12:35:02.886Z,62.16
2016-10-10T12:36:02.882Z,62.87
2016-10-10T12:37:03.189Z,59.12
2016-10-10T12:38:02.873Z,57.7
2016-10-10T12:39:02.867Z,57.7
2016-10-10T12:40:02.866Z,58.73
2016-10-10T12:41:02.862Z,58.67
2016-10-10T12:42:02.859Z,57.54
2016-10-10T12:43:03.178Z,57.99
2016-10-10T12:44:02.856Z,57.32
2016-10-10T12:45:02.846Z,57.9
2016-10-10T12:46:02.844Z,57.92
2016-10-10T12:47:02.840Z,56.29
2016-10-10T12:48:02.863Z,55.52
2016-10-10T12:49:02.834Z,53.69
2016-10-10T12:50:03.189Z,54.85
2016-10-10T12:51:03.143Z,53.78
2016-10-10T12:52:03.142Z,53.98
2016-10-10T12:53:03.139Z,53.81